Time;durP1;ratioP1;P1;durP2;ratioP2;P2;SDS_P1;SDS_P2;PMS_P1;PMS_P2;Temp;Humidity;BMP_temperature;BMP_pressure;BME280_temperature;BME280_humidity;BME280_pressure;Samples;Min_cycle;Max_cycle;Signal;HPM_P1;HPM_P2
2021/12/18 00:01:04;;;;;;;67.68;32.78;;;;;;;4.11;74.28;102742.09;4989995;28;20058;-63
2021/12/18 00:03:31;;;;;;;66.50;33.50;;;;;;;4.08;74.42;102737.75;4992762;28;20057;-62
2021/12/18 00:05:58;;;;;;;61.00;33.17;;;;;;;4.08;74.40;102725.63;4992518;28;20077;-63
2021/12/18 00:08:25;;;;;;;68.50;34.35;;;;;;;4.12;74.37;102725.63;5004308;28;20046;-62
2021/12/18 00:10:53;;;;;;;57.83;32.17;;;;;;;4.11;74.38;102724.75;5008987;28;20060;-63
2021/12/18 00:13:19;;;;;;;52.90;31.13;;;;;;;4.06;74.55;102731.66;5010468;28;20065;-62
2021/12/18 00:15:46;;;;;;;60.63;32.83;;;;;;;4.08;74.69;102728.22;5010691;28;20509;-62
2021/12/18 00:18:13;;;;;;;61.97;33.40;;;;;;;4.08;74.73;102715.22;5009045;28;20045;-67
2021/12/18 00:20:40;;;;;;;54.53;31.40;;;;;;;4.08;74.44;102707.44;5009016;28;20092;-62
2021/12/18 00:23:07;;;;;;;62.30;32.15;;;;;;;4.08;74.55;102727.34;5006256;28;20053;-62
2021/12/18 00:25:34;;;;;;;65.60;34.20;;;;;;;4.04;74.75;102717.81;4999681;28;20042;-66
2021/12/18 00:28:01;;;;;;;58.45;34.47;;;;;;;4.01;74.85;102710.91;4992117;28;20487;-62
2021/12/18 00:30:28;;;;;;;70.00;33.58;;;;;;;4.05;74.51;102712.63;5001473;28;20487;-62
2021/12/18 00:32:54;;;;;;;59.10;32.63;;;;;;;4.27;74.14;102717.88;4990782;28;20062;-61
2021/12/18 00:35:21;;;;;;;55.58;31.50;;;;;;;4.17;74.19;102727.38;4992293;28;20046;-61
2021/12/18 00:37:48;;;;;;;65.88;33.05;;;;;;;4.13;74.30;102722.19;4992532;28;20061;-61
2021/12/18 00:40:24;;;;;;;57.80;33.00;;;;;;;4.07;74.49;102708.28;4994965;28;20049;-62
2021/12/18 00:43:01;;;;;;;58.30;32.75;;;;;;;4.01;74.60;102705.69;4995831;28;20049;-60
2021/12/18 00:45:29;;;;;;;51.97;31.98;;;;;;;3.99;74.24;102715.22;4992493;28;20101;-60
2021/12/18 00:47:56;;;;;;;56.50;32.42;;;;;;;3.95;74.30;102708.28;4995739;28;20438;-60
2021/12/18 00:50:28;;;;;;;49.63;30.33;;;;;;;3.90;74.44;102703.06;4995647;28;20047;-61
2021/12/18 00:52:55;;;;;;;62.33;32.88;;;;;;;3.92;74.11;102697.88;4995504;28;20042;-62
2021/12/18 00:55:23;;;;;;;51.83;29.45;;;;;;;3.85;74.12;102688.34;4995431;28;20038;-61
2021/12/18 00:57:50;;;;;;;49.78;28.67;;;;;;;3.84;74.22;102689.19;4994323;28;20097;-64
2021/12/18 01:00:23;;;;;;;61.63;30.95;;;;;;;3.82;74.05;102677.94;4995160;28;20047;-62
2021/12/18 01:02:58;;;;;;;51.67;28.90;;;;;;;3.73;74.08;102687.44;4992281;28;20046;-59
2021/12/18 01:05:26;;;;;;;44.65;29.42;;;;;;;3.70;74.04;102689.16;4995565;28;20047;-62
2021/12/18 01:07:55;;;;;;;49.33;29.95;;;;;;;3.65;74.07;102701.25;4993739;28;20053;-60
2021/12/18 01:12:58;;;;;;;39.42;26.67;;;;;;;3.55;73.89;102702.94;4994047;28;20057;-65
2021/12/18 01:15:30;;;;;;;58.97;26.83;;;;;;;3.54;73.61;102698.59;4995094;28;20050;-60
2021/12/18 01:23:29;;;;;;;39.10;25.63;;;;;;;3.49;73.29;102702.91;4995301;28;20414;-61
2021/12/18 01:25:57;;;;;;;47.38;26.65;;;;;;;3.47;73.39;102709.81;4994994;28;20046;-61
2021/12/18 01:28:24;;;;;;;49.05;26.95;;;;;;;3.47;73.33;102702.91;4994103;28;20064;-64
2021/12/18 01:30:52;;;;;;;42.53;26.58;;;;;;;3.43;73.27;102702.00;4995150;28;20422;-60
2021/12/18 01:33:19;;;;;;;37.83;25.10;;;;;;;3.43;73.22;102704.59;4994010;28;20065;-61
2021/12/18 01:35:46;;;;;;;39.90;25.90;;;;;;;3.43;72.95;102704.59;4994596;28;20513;-60
2021/12/18 01:38:13;;;;;;;50.15;26.88;;;;;;;3.36;73.12;102705.41;4994766;28;20050;-61
2021/12/18 01:40:40;;;;;;;39.70;25.75;;;;;;;3.38;73.12;102708.06;4995012;28;20046;-60
2021/12/18 01:53:44;;;;;;;49.55;26.77;;;;;;;3.31;72.92;102740.84;4994592;28;20046;-60
2021/12/18 01:56:11;;;;;;;54.70;27.05;;;;;;;3.32;72.75;102746.94;4994759;28;20042;-60
2021/12/18 01:58:38;;;;;;;53.58;25.73;;;;;;;3.25;72.70;102756.38;4994563;28;20046;-60
2021/12/18 02:01:05;;;;;;;37.53;24.65;;;;;;;3.24;72.97;102757.28;4993470;28;20461;-60
2021/12/18 02:03:32;;;;;;;40.60;25.33;;;;;;;3.26;72.98;102764.19;4994706;28;20510;-60
2021/12/18 02:05:59;;;;;;;47.30;25.30;;;;;;;3.16;72.45;102771.91;4994397;28;20056;-61
2021/12/18 02:08:27;;;;;;;44.78;25.02;;;;;;;3.05;72.89;102771.84;4994446;28;20050;-60
2021/12/18 02:11:10;;;;;;;37.22;24.73;;;;;;;3.06;73.10;102773.53;4994300;28;20050;-60
2021/12/18 02:21:36;;;;;;;42.35;24.52;;;;;;;3.13;72.81;102780.53;4994314;28;20043;-61
2021/12/18 02:24:03;;;;;;;52.40;25.83;;;;;;;2.98;72.75;102786.47;4994009;28;20054;-60
2021/12/18 02:26:30;;;;;;;48.85;25.52;;;;;;;3.00;72.71;102795.13;4993819;28;20045;-60
2021/12/18 02:28:59;;;;;;;42.58;25.83;;;;;;;2.99;72.93;102790.78;4993796;28;20041;-60
2021/12/18 02:31:26;;;;;;;42.97;25.83;;;;;;;3.04;72.88;102791.69;4994008;28;20415;-60
2021/12/18 02:33:53;;;;;;;47.63;25.65;;;;;;;2.98;72.66;102798.56;4993874;28;20047;-60
2021/12/18 02:36:25;;;;;;;42.85;26.85;;;;;;;2.98;73.03;102802.03;4992577;28;20057;-60
2021/12/18 02:41:41;;;;;;;45.17;26.10;;;;;;;3.03;72.79;102784.75;4993716;28;20046;-60
2021/12/18 02:44:09;;;;;;;;;;;;;;;3.02;73.11;102789.94;4994150;28;20046;-60
2021/12/18 02:46:37;;;;;;;42.92;25.05;;;;;;;3.09;72.86;102795.19;4993709;28;19921;-60
2021/12/18 02:49:15;;;;;;;47.33;25.70;;;;;;;3.11;72.62;102787.41;4993616;28;20054;-61
2021/12/18 02:51:42;;;;;;;43.47;24.73;;;;;;;3.12;72.70;102785.72;4992592;28;20046;-61
2021/12/18 02:54:10;;;;;;;35.05;24.10;;;;;;;3.00;72.94;102787.34;4993391;28;20491;-61
2021/12/18 02:56:36;;;;;;;37.97;23.08;;;;;;;3.01;72.98;102794.28;4993428;28;20502;-64
2021/12/18 02:59:08;;;;;;;36.22;22.35;;;;;;;3.00;72.86;102794.28;4993303;28;20046;-61
2021/12/18 03:01:38;;;;;;;35.35;23.10;;;;;;;3.00;72.84;102789.94;4993382;28;20050;-65
2021/12/18 03:04:23;;;;;;;33.25;21.25;;;;;;;3.01;72.64;102796.88;4993094;28;20470;-65
2021/12/18 03:06:55;;;;;;;37.78;22.75;;;;;;;3.01;72.57;102791.69;4992372;28;20046;-61
2021/12/18 03:19:07;;;;;;;34.50;21.60;;;;;;;3.00;72.67;102804.66;4992788;28;20050;-65
2021/12/18 03:25:27;;;;;;;35.10;22.20;;;;;;;3.00;72.40;102843.56;4993145;28;20051;-60
2021/12/18 03:27:58;;;;;;;34.92;22.48;;;;;;;2.98;72.54;102847.84;4992833;28;20055;-62
2021/12/18 03:30:25;;;;;;;32.20;21.40;;;;;;;2.96;72.36;102855.63;4992827;28;20486;-60
2021/12/18 03:32:52;;;;;;;36.45;21.95;;;;;;;2.97;71.88;102862.53;4993078;28;20352;-61
2021/12/18 03:35:20;;;;;;;39.45;23.27;;;;;;;3.00;72.02;102861.72;4991850;28;20146;-62
2021/12/18 03:37:48;;;;;;;37.55;23.00;;;;;;;2.96;72.09;102858.22;4992683;28;20054;-60
2021/12/18 03:40:18;;;;;;;41.30;23.77;;;;;;;2.96;72.15;102862.50;4992065;28;20046;-60
2021/12/18 03:42:45;;;;;;;37.33;22.90;;;;;;;2.96;72.19;102872.88;4993012;28;20047;-64
2021/12/18 03:45:14;;;;;;;38.78;23.02;;;;;;;2.92;72.36;102875.47;4992795;28;20406;-66
2021/12/18 03:47:41;;;;;;;33.33;22.50;;;;;;;2.96;72.33;102873.78;4992799;28;20053;-60
2021/12/18 03:50:08;;;;;;;36.08;21.48;;;;;;;2.94;72.12;102884.09;4992699;28;20050;-64
2021/12/18 03:52:35;;;;;;;38.72;22.60;;;;;;;2.93;72.14;102884.97;4992878;28;20046;-60
2021/12/18 03:55:04;;;;;;;36.22;23.00;;;;;;;2.89;72.35;102890.97;4992598;28;20046;-61
2021/12/18 03:57:31;;;;;;;38.42;23.73;;;;;;;2.91;72.19;102889.28;4992024;28;20045;-61
2021/12/18 03:59:57;;;;;;;35.13;22.52;;;;;;;2.90;72.12;102889.25;4992621;28;20050;-61
2021/12/18 04:02:24;;;;;;;37.45;22.55;;;;;;;2.91;72.10;102889.28;4991043;28;20046;-60
2021/12/18 04:04:51;;;;;;;34.38;22.15;;;;;;;2.92;72.16;102893.63;4988888;28;20073;-60
2021/12/18 04:07:18;;;;;;;33.00;21.55;;;;;;;2.91;71.95;102888.41;4989226;28;20042;-60
2021/12/18 04:09:47;;;;;;;37.75;23.15;;;;;;;2.87;71.89;102884.91;4989290;28;20093;-60
2021/12/18 04:12:15;;;;;;;31.52;20.45;;;;;;;2.87;72.05;102879.72;4989190;28;20046;-63
2021/12/18 04:14:42;;;;;;;36.30;22.65;;;;;;;2.89;72.01;102887.53;4992073;28;20050;-60
2021/12/18 04:17:09;;;;;;;41.15;22.17;;;;;;;2.80;72.08;102887.44;4993325;28;20050;-63
2021/12/18 04:19:35;;;;;;;38.25;22.13;;;;;;;2.83;72.10;102882.25;4992939;28;20058;-60
2021/12/18 04:22:02;;;;;;;31.08;21.20;;;;;;;2.85;72.00;102886.63;4993282;28;20050;-62
2021/12/18 04:24:29;;;;;;;34.42;21.85;;;;;;;2.86;72.13;102884.91;4992981;28;20058;-60
2021/12/18 04:26:56;;;;;;;34.35;21.23;;;;;;;2.82;72.14;102885.72;4993471;28;20060;-62
2021/12/18 04:29:23;;;;;;;33.75;20.80;;;;;;;2.80;72.06;102896.06;4992568;28;20053;-60
2021/12/18 04:31:49;;;;;;;29.70;20.05;;;;;;;2.79;71.93;102896.91;4992454;28;20065;-60
2021/12/18 04:34:16;;;;;;;35.00;20.42;;;;;;;2.80;71.82;102897.81;4992435;28;20050;-60
2021/12/18 04:36:43;;;;;;;36.47;20.77;;;;;;;2.76;71.78;102905.53;4992728;28;20112;-60
2021/12/18 04:39:09;;;;;;;39.17;21.13;;;;;;;2.69;72.03;102911.53;4992883;28;20054;-66
2021/12/18 04:41:48;;;;;;;29.08;19.73;;;;;;;2.70;72.02;102915.81;4992902;28;20061;-60
2021/12/18 04:44:16;;;;;;;33.50;21.17;;;;;;;2.68;72.14;102906.28;4992479;28;20046;-61
2021/12/18 04:46:43;;;;;;;39.88;20.10;;;;;;;2.59;72.26;102907.06;4991594;28;20050;-60
2021/12/18 04:49:10;;;;;;;30.48;19.20;;;;;;;2.57;72.17;102914.81;4992873;28;20069;-60
2021/12/18 04:51:36;;;;;;;35.67;20.95;;;;;;;2.58;72.24;102920.91;4992476;28;20561;-63
2021/12/18 04:54:04;;;;;;;33.05;20.50;;;;;;;2.59;72.27;102918.31;4992562;28;20054;-60
2021/12/18 04:56:31;;;;;;;30.13;19.20;;;;;;;2.64;72.15;102920.97;4992365;28;20506;-60
2021/12/18 04:58:57;;;;;;;33.55;20.90;;;;;;;2.70;71.76;102920.16;4992326;28;20065;-64
2021/12/18 05:01:24;;;;;;;31.90;19.98;;;;;;;2.66;72.01;102926.16;4992198;28;20046;-60
2021/12/18 05:03:51;;;;;;;36.25;21.58;;;;;;;2.65;71.91;102927.00;4991482;28;20054;-60
2021/12/18 05:06:18;;;;;;;31.20;21.25;;;;;;;2.61;72.37;102932.13;4992564;28;20109;-60
2021/12/18 05:08:45;;;;;;;35.42;21.45;;;;;;;2.66;71.94;102931.34;4992566;28;20518;-61
2021/12/18 05:11:11;;;;;;;36.55;22.00;;;;;;;2.60;72.06;102933.03;4992350;28;20053;-63
2021/12/18 05:13:38;;;;;;;32.53;20.55;;;;;;;2.61;72.07;102934.72;4992056;28;20054;-61
2021/12/18 05:16:05;;;;;;;40.25;21.40;;;;;;;2.65;72.01;102933.06;4992338;28;20486;-60
2021/12/18 05:18:32;;;;;;;34.85;21.63;;;;;;;2.60;72.09;102945.09;4992197;28;20054;-61
2021/12/18 05:20:58;;;;;;;39.58;21.98;;;;;;;2.64;71.95;102946.00;4990958;28;20137;-60
2021/12/18 05:23:25;;;;;;;33.28;21.80;;;;;;;2.64;72.07;102951.19;4991894;28;20084;-60
2021/12/18 05:25:52;;;;;;;35.10;22.45;;;;;;;2.61;72.05;102946.84;4990565;28;20046;-61
2021/12/18 05:28:19;;;;;;;35.03;22.38;;;;;;;2.63;71.92;102937.38;4991878;28;20039;-62
2021/12/18 05:30:45;;;;;;;38.58;22.20;;;;;;;2.65;71.92;102943.41;4991727;28;20042;-61
2021/12/18 05:33:12;;;;;;;39.92;22.80;;;;;;;2.64;72.00;102946.91;4991590;28;20138;-61
2021/12/18 05:35:39;;;;;;;34.53;21.80;;;;;;;2.64;72.34;102964.16;4991601;28;20050;-60
2021/12/18 05:38:06;;;;;;;41.08;22.15;;;;;;;2.61;72.02;102963.25;4990867;28;20050;-60
2021/12/18 05:40:37;;;;;;;33.33;21.70;;;;;;;2.57;72.38;102970.97;4991663;28;20475;-60
2021/12/18 05:43:06;;;;;;;37.50;22.27;;;;;;;2.53;72.03;102967.47;4991451;28;20069;-62
2021/12/18 05:45:33;;;;;;;32.08;19.55;;;;;;;2.51;72.12;102979.53;4991447;28;20046;-63
2021/12/18 05:47:59;;;;;;;34.63;21.65;;;;;;;2.55;71.98;102985.63;4991660;28;20404;-63
2021/12/18 05:50:28;;;;;;;30.42;20.92;;;;;;;2.56;72.02;102987.38;4991537;28;20043;-63
2021/12/18 05:52:59;;;;;;;32.97;20.20;;;;;;;2.50;71.90;102990.78;4991385;28;20051;-63
2021/12/18 05:55:27;;;;;;;27.40;19.30;;;;;;;2.45;72.02;102993.28;4990685;28;20590;-62
2021/12/18 05:57:54;;;;;;;31.75;21.13;;;;;;;2.45;71.92;103000.19;4991503;28;20057;-65
2021/12/18 06:00:21;;;;;;;32.92;21.48;;;;;;;2.49;71.83;103003.69;4991252;28;20089;-63
2021/12/18 06:02:49;;;;;;;36.30;22.10;;;;;;;2.44;71.50;103022.63;4991218;28;20074;-60
2021/12/18 06:05:17;;;;;;;31.63;21.00;;;;;;;2.42;71.79;103019.16;4991375;28;20381;-64
2021/12/18 06:07:54;;;;;;;32.28;20.63;;;;;;;2.42;71.67;103016.56;4991169;28;20050;-61
2021/12/18 06:10:23;;;;;;;31.65;20.30;;;;;;;2.41;71.68;103027.78;4990663;28;20460;-60
2021/12/18 06:12:50;;;;;;;31.13;21.08;;;;;;;2.40;71.61;103031.22;4991003;28;20053;-61
2021/12/18 06:15:17;;;;;;;33.70;21.50;;;;;;;2.42;71.30;103028.66;4991175;28;20144;-61
2021/12/18 06:17:44;;;;;;;31.52;20.10;;;;;;;2.44;71.68;103026.97;4990821;28;20046;-65
2021/12/18 06:20:11;;;;;;;34.22;20.70;;;;;;;2.44;71.24;103014.00;4991048;28;20046;-63
2021/12/18 06:22:38;;;;;;;31.98;20.92;;;;;;;2.40;71.69;103012.19;4990920;28;20058;-63
2021/12/18 06:25:05;;;;;;;32.10;20.30;;;;;;;2.33;71.55;103023.34;4991082;28;20531;-62
2021/12/18 06:27:32;;;;;;;30.00;19.63;;;;;;;2.33;71.29;103011.25;4990216;28;20085;-62
2021/12/18 06:29:59;;;;;;;35.70;20.33;;;;;;;2.35;71.45;103019.94;4990677;28;20047;-63
2021/12/18 06:32:26;;;;;;;36.10;21.00;;;;;;;2.33;71.24;103024.19;4990775;28;20228;-63
2021/12/18 06:34:52;;;;;;;32.53;22.20;;;;;;;2.34;71.38;103020.78;4990487;28;20054;-63
2021/12/18 06:37:19;;;;;;;29.25;20.52;;;;;;;2.32;71.51;103027.63;4990475;28;20050;-63
2021/12/18 06:39:46;;;;;;;34.97;22.02;;;;;;;2.32;71.28;103032.81;4990421;28;20042;-63
2021/12/18 06:42:32;;;;;;;31.27;21.40;;;;;;;2.36;71.63;103029.44;4989857;28;20054;-63
2021/12/18 06:44:59;;;;;;;35.00;22.02;;;;;;;2.34;71.52;103035.47;4990209;28;20053;-63
2021/12/18 06:47:26;;;;;;;35.33;22.67;;;;;;;2.33;71.27;103036.31;4990547;28;20062;-65
2021/12/18 06:49:52;;;;;;;34.08;22.85;;;;;;;2.32;71.42;103043.19;4990169;28;20125;-63
2021/12/18 06:52:19;;;;;;;40.95;24.38;;;;;;;2.32;71.16;103042.31;4990565;28;20061;-63
2021/12/18 06:54:46;;;;;;;43.13;28.77;;;;;;;2.24;71.21;103039.63;4990443;28;20517;-64
2021/12/18 06:57:12;;;;;;;41.53;28.20;;;;;;;2.29;71.41;103056.09;4990256;28;20047;-67
2021/12/18 06:59:39;;;;;;;38.97;26.05;;;;;;;2.30;71.18;103065.63;4988959;28;20047;-63
2021/12/18 07:02:06;;;;;;;39.55;24.27;;;;;;;2.33;70.92;103063.06;4990272;28;20091;-61
2021/12/18 07:04:32;;;;;;;36.30;23.25;;;;;;;2.37;70.87;103075.22;4990538;28;20045;-60
2021/12/18 07:06:59;;;;;;;33.08;22.83;;;;;;;2.38;70.61;103076.97;4990011;28;20056;-62
2021/12/18 07:09:26;;;;;;;33.58;23.02;;;;;;;2.37;70.82;103075.22;4989868;28;20049;-64
2021/12/18 07:11:52;;;;;;;32.22;23.08;;;;;;;2.39;70.73;103083.03;4989902;28;20051;-64
2021/12/18 07:14:19;;;;;;;35.28;23.48;;;;;;;2.40;70.69;103076.97;4989108;28;20042;-61
2021/12/18 07:16:47;;;;;;;32.88;22.05;;;;;;;2.40;70.63;103079.56;4990031;28;20050;-65
2021/12/18 07:19:14;;;;;;;38.00;24.23;;;;;;;2.44;70.70;103079.66;4989824;28;20047;-61
2021/12/18 07:21:40;;;;;;;33.65;23.05;;;;;;;2.51;70.33;103084.94;4990072;28;20946;-61
2021/12/18 07:24:07;;;;;;;37.15;23.63;;;;;;;2.59;70.11;103070.34;4990201;28;20495;-60
2021/12/18 07:26:34;;;;;;;38.03;25.15;;;;;;;2.68;69.83;103075.69;4989512;28;20053;-62
2021/12/18 07:29:00;;;;;;;36.60;23.77;;;;;;;2.76;69.72;103073.19;4988600;28;20046;-65
2021/12/18 07:31:27;;;;;;;37.20;24.58;;;;;;;2.84;69.39;103081.94;4989661;28;20045;-61
2021/12/18 07:33:54;;;;;;;36.88;24.63;;;;;;;2.86;69.41;103082.84;4989165;28;20045;-61
2021/12/18 07:36:21;;;;;;;37.78;24.40;;;;;;;2.90;69.25;103081.16;4989228;28;20569;-61
2021/12/18 07:38:48;;;;;;;34.45;24.23;;;;;;;2.95;69.26;103079.50;4989815;28;20053;-64
2021/12/18 07:41:15;;;;;;;35.15;24.17;;;;;;;2.99;69.24;103088.19;4989865;28;20072;-61
2021/12/18 07:43:41;;;;;;;35.45;23.80;;;;;;;3.05;69.13;103090.88;4989536;28;20049;-63
2021/12/18 07:46:08;;;;;;;37.67;25.05;;;;;;;3.09;68.89;103096.09;4988364;28;20042;-60
2021/12/18 07:48:35;;;;;;;38.35;24.75;;;;;;;3.12;68.92;103094.41;4988794;28;20454;-63
2021/12/18 07:51:02;;;;;;;40.50;26.10;;;;;;;3.20;68.72;103101.44;4989519;28;20129;-61
2021/12/18 07:53:28;;;;;;;38.15;26.25;;;;;;;3.24;68.73;103089.38;4989299;28;20097;-64
2021/12/18 07:55:55;;;;;;;38.05;25.45;;;;;;;3.29;68.73;103090.31;4989425;28;20050;-61
2021/12/18 07:58:22;;;;;;;34.22;25.55;;;;;;;3.36;68.40;103093.84;4989452;28;20054;-64
2021/12/18 08:00:49;;;;;;;36.70;25.02;;;;;;;3.38;68.45;103098.19;4989200;28;20043;-63
2021/12/18 08:03:16;;;;;;;38.17;24.92;;;;;;;3.44;68.34;103089.59;4988595;28;20047;-63
2021/12/18 08:05:43;;;;;;;32.78;23.80;;;;;;;3.49;68.20;103087.06;4989063;28;20054;-64
2021/12/18 08:08:09;;;;;;;37.38;24.95;;;;;;;3.56;68.24;103087.13;4989718;28;20050;-63
2021/12/18 08:10:36;;;;;;;38.22;24.00;;;;;;;3.67;68.08;103091.56;4989173;28;20058;-64
2021/12/18 08:13:03;;;;;;;35.92;23.40;;;;;;;3.81;67.95;103090.00;4989121;28;20046;-64
2021/12/18 08:15:30;;;;;;;31.67;22.10;;;;;;;4.01;67.74;103087.59;4989003;28;20054;-64
2021/12/18 08:17:58;;;;;;;33.78;22.40;;;;;;;4.26;66.95;103087.78;4988510;28;20051;-61
2021/12/18 08:20:26;;;;;;;32.95;23.10;;;;;;;4.50;66.65;103083.63;4986303;28;20088;-64
2021/12/18 08:22:53;;;;;;;35.53;22.98;;;;;;;4.74;66.30;103088.09;4988910;28;20042;-61
2021/12/18 08:25:19;;;;;;;32.67;23.70;;;;;;;4.98;65.69;103100.38;4988753;28;20061;-59
2021/12/18 08:27:46;;;;;;;36.40;23.73;;;;;;;5.10;65.38;103096.94;4989302;28;20054;-58
2021/12/18 08:30:13;;;;;;;39.22;26.10;;;;;;;5.28;65.16;103108.28;4988948;28;20051;-58
2021/12/18 08:32:43;;;;;;;39.28;26.27;;;;;;;5.39;64.95;103104.00;4987830;28;20466;-59
2021/12/18 08:35:10;;;;;;;44.63;28.63;;;;;;;5.51;64.29;103108.34;4976501;28;20105;-59
2021/12/18 08:37:37;;;;;;;57.13;34.60;;;;;;;5.65;64.24;103116.22;4988641;28;20054;-59
2021/12/18 08:40:05;;;;;;;42.33;30.98;;;;;;;5.78;63.92;103128.41;4988700;28;20046;-59
2021/12/18 08:42:31;;;;;;;41.15;26.48;;;;;;;5.99;63.41;103122.41;4989003;28;20050;-60
2021/12/18 08:44:58;;;;;;;38.90;25.70;;;;;;;6.11;62.94;103123.28;4988761;28;20054;-60
2021/12/18 08:47:25;;;;;;;36.50;24.67;;;;;;;6.19;62.80;103125.00;4988967;28;20054;-59
2021/12/18 08:49:53;;;;;;;34.10;23.70;;;;;;;6.43;62.28;103133.69;4999901;28;20050;-59
2021/12/18 08:52:19;;;;;;;36.10;24.45;;;;;;;6.36;62.27;103139.78;4988155;28;20052;-60
2021/12/18 08:54:46;;;;;;;33.20;23.55;;;;;;;6.37;62.56;103146.75;4988993;28;20698;-61
2021/12/18 08:57:13;;;;;;;31.48;22.02;;;;;;;6.58;61.90;103145.88;4981733;28;20494;-59
2021/12/18 08:59:40;;;;;;;39.28;23.67;;;;;;;6.69;61.87;103165.00;4990988;28;20046;-58
2021/12/18 09:02:09;;;;;;;36.90;24.05;;;;;;;6.48;62.18;103154.56;4992074;28;20046;-63
2021/12/18 09:04:36;;;;;;;41.97;24.77;;;;;;;6.15;63.04;103170.19;4992269;28;20057;-59
2021/12/18 09:07:03;;;;;;;32.25;21.92;;;;;;;6.34;62.76;103163.25;4990993;28;20487;-63
2021/12/18 09:09:38;;;;;;;31.17;21.08;;;;;;;6.30;62.50;103168.50;4978642;28;20058;-58
2021/12/18 09:12:07;;;;;;;29.48;20.00;;;;;;;6.07;63.19;103174.56;4996983;28;20056;-59
2021/12/18 09:14:34;;;;;;;30.70;21.23;;;;;;;6.11;63.01;103168.47;5007832;28;20049;-59
2021/12/18 09:17:01;;;;;;;31.58;21.05;;;;;;;5.86;63.40;103173.59;5008280;28;20443;-59
2021/12/18 09:19:28;;;;;;;30.77;21.75;;;;;;;5.96;63.33;103176.22;5006919;28;20076;-65
2021/12/18 09:21:55;;;;;;;29.90;21.02;;;;;;;5.86;63.57;103183.16;5009077;28;20054;-59
2021/12/18 09:24:22;;;;;;;32.17;21.85;;;;;;;5.62;63.99;103184.81;5004174;28;20123;-59
2021/12/18 09:26:49;;;;;;;30.75;21.73;;;;;;;5.53;64.22;103179.56;5001523;28;20050;-59
2021/12/18 09:29:15;;;;;;;30.75;22.58;;;;;;;5.55;64.25;103186.53;5006182;28;20046;-58
2021/12/18 09:31:42;;;;;;;26.75;19.75;;;;;;;5.35;64.46;103190.78;5003199;28;20042;-58
2021/12/18 09:34:11;;;;;;;26.92;19.45;;;;;;;5.28;65.12;103199.41;5007030;28;20056;-59
2021/12/18 09:36:39;;;;;;;25.17;18.30;;;;;;;5.31;65.00;103195.09;5004005;28;20092;-59
2021/12/18 09:39:07;;;;;;;27.85;18.73;;;;;;;5.34;64.48;103189.03;5007850;28;20501;-59
2021/12/18 09:41:37;;;;;;;27.88;19.67;;;;;;;5.66;64.13;103189.19;5003741;28;20089;-59
2021/12/18 09:44:06;;;;;;;24.92;18.98;;;;;;;5.47;64.18;103188.25;5008248;28;20049;-61
2021/12/18 09:46:34;;;;;;;25.83;19.05;;;;;;;5.38;64.90;103185.56;5008203;28;20054;-59
2021/12/18 09:49:03;;;;;;;26.00;18.88;;;;;;;5.73;63.73;103179.63;5006204;28;20050;-60
2021/12/18 09:51:37;;;;;;;25.05;19.48;;;;;;;6.03;63.40;103175.38;5004873;28;20041;-62
2021/12/18 09:54:05;;;;;;;24.40;18.48;;;;;;;6.12;63.03;103175.41;5002468;28;20046;-62
2021/12/18 09:56:35;;;;;;;25.38;18.35;;;;;;;6.47;62.37;103177.16;5004722;28;20049;-59
2021/12/18 09:59:03;;;;;;;25.38;19.05;;;;;;;6.91;61.28;103164.94;5000608;28;20042;-59
2021/12/18 10:01:34;;;;;;;25.27;19.60;;;;;;;7.28;60.47;103167.44;4999173;28;20061;-63
2021/12/18 10:04:03;;;;;;;23.83;18.83;;;;;;;7.49;60.08;103170.84;4989732;28;20054;-59
2021/12/18 10:06:35;;;;;;;23.75;17.90;;;;;;;7.65;59.71;103164.66;4994176;28;20402;-60
2021/12/18 10:09:28;;;;;;;27.45;17.98;;;;;;;7.75;59.75;103151.56;4992892;28;20054;-62
2021/12/18 10:12:02;;;;;;;24.70;18.23;;;;;;;7.94;59.40;103150.56;4995897;28;20046;-62
2021/12/18 10:14:38;;;;;;;23.15;17.55;;;;;;;7.59;60.16;103162.13;4990091;28;20073;-62
2021/12/18 10:17:19;;;;;;;23.77;19.10;;;;;;;7.66;60.30;103161.19;4989765;28;20053;-62
2021/12/18 10:19:47;;;;;;;24.80;17.48;;;;;;;7.90;59.70;103158.44;4989788;28;20131;-60
2021/12/18 10:22:14;;;;;;;22.13;18.00;;;;;;;8.25;59.15;103163.44;4989931;28;20050;-63
2021/12/18 10:24:44;;;;;;;22.85;16.95;;;;;;;8.33;58.94;103160.75;4994274;28;20454;-61
2021/12/18 10:27:20;;;;;;;22.92;16.98;;;;;;;8.46;58.59;103151.94;4991374;28;20453;-63
2021/12/18 10:29:50;;;;;;;24.65;18.05;;;;;;;8.64;58.33;103148.28;5002662;28;20046;-63
2021/12/18 10:32:23;;;;;;;21.30;16.85;;;;;;;8.82;58.21;103138.50;5008481;28;20207;-66
2021/12/18 10:34:58;;;;;;;22.17;17.00;;;;;;;8.82;58.10;103133.28;5006913;28;20064;-63
2021/12/18 10:37:28;;;;;;;24.83;17.73;;;;;;;8.81;58.38;103128.91;5008845;28;20096;-63
2021/12/18 10:39:56;;;;;;;22.50;17.13;;;;;;;8.95;57.94;103134.00;5006486;28;20054;-69
2021/12/18 10:42:26;;;;;;;23.63;18.13;;;;;;;8.90;58.23;103126.22;5006553;28;20536;-64
2021/12/18 10:44:58;;;;;;;24.40;16.38;;;;;;;8.94;58.04;103117.44;5002085;28;20054;-62
2021/12/18 10:47:40;;;;;;;23.75;18.08;;;;;;;9.01;58.28;103123.47;4989967;28;20491;-62
2021/12/18 10:50:24;;;;;;;22.13;17.65;;;;;;;9.23;58.19;103121.47;4990125;28;20081;-62
2021/12/18 10:52:59;;;;;;;22.20;16.55;;;;;;;8.98;58.75;103121.75;4990070;28;20096;-63
2021/12/18 10:55:32;;;;;;;22.80;18.13;;;;;;;8.81;59.33;103129.81;4989940;28;20046;-63
2021/12/18 10:58:02;;;;;;;21.58;17.52;;;;;;;8.76;59.46;103125.47;4989882;28;20414;-62
2021/12/18 11:00:39;;;;;;;24.33;18.35;;;;;;;8.38;60.50;103121.47;4988925;28;20506;-63
2021/12/18 11:03:26;;;;;;;24.98;17.63;;;;;;;8.28;60.83;103129.41;4989913;28;20046;-63
2021/12/18 11:06:07;;;;;;;23.33;18.33;;;;;;;8.13;61.66;103119.91;4989835;28;20046;-64
2021/12/18 11:08:48;;;;;;;27.95;19.35;;;;;;;7.91;62.24;103120.97;4989828;28;20046;-63
2021/12/18 11:14:07;;;;;;;25.58;19.42;;;;;;;7.50;63.70;103112.50;4988182;28;20085;-62
2021/12/18 11:16:36;;;;;;;24.55;19.40;;;;;;;7.37;64.06;103109.09;4989086;28;20049;-63
2021/12/18 11:19:13;;;;;;;23.40;18.17;;;;;;;7.13;65.09;103103.09;4989920;28;20436;-63
2021/12/18 11:21:46;;;;;;;23.17;18.00;;;;;;;7.01;65.37;103096.19;4989718;28;20046;-63
2021/12/18 11:24:14;;;;;;;26.98;20.35;;;;;;;6.90;65.88;103092.75;4989704;28;20410;-62
2021/12/18 11:26:55;;;;;;;23.95;19.38;;;;;;;6.88;65.88;103089.25;4989554;28;20054;-62
2021/12/18 11:29:27;;;;;;;26.30;20.08;;;;;;;6.80;66.30;103102.34;4989546;28;20046;-62
2021/12/18 11:31:54;;;;;;;27.02;20.27;;;;;;;6.78;66.46;103092.75;4989627;28;20052;-63
2021/12/18 11:34:21;;;;;;;26.77;20.23;;;;;;;6.82;66.37;103104.97;4988747;28;20510;-62
2021/12/18 11:36:50;;;;;;;28.58;20.38;;;;;;;6.87;66.36;103095.38;4975550;28;20058;-68
2021/12/18 11:39:21;;;;;;;26.65;20.75;;;;;;;6.88;66.64;103093.63;4989872;28;20054;-62
2021/12/18 11:41:51;;;;;;;28.08;20.52;;;;;;;6.86;67.03;103089.25;4989456;28;20419;-62
2021/12/18 11:44:29;;;;;;;26.58;20.35;;;;;;;6.91;66.87;103083.16;4989784;28;20053;-64
2021/12/18 11:46:58;;;;;;;31.60;21.73;;;;;;;6.90;66.85;103079.69;4989189;28;20061;-63
2021/12/18 11:49:41;;;;;;;26.17;20.05;;;;;;;6.90;67.12;103077.09;4988618;28;20434;-63
2021/12/18 11:52:08;;;;;;;26.40;19.95;;;;;;;6.83;67.35;103076.25;4975977;28;20038;-63
2021/12/18 11:54:41;;;;;;;25.80;19.88;;;;;;;6.84;67.27;103066.66;4989413;28;20046;-63
2021/12/18 11:57:08;;;;;;;27.08;20.42;;;;;;;6.83;67.40;103063.19;4989137;28;20053;-62
2021/12/18 11:59:43;;;;;;;30.80;20.50;;;;;;;6.83;67.47;103060.59;4989250;28;20565;-63
2021/12/18 12:02:12;;;;;;;25.73;20.35;;;;;;;6.92;67.63;103064.00;4989109;28;20050;-63
2021/12/18 12:04:58;;;;;;;25.27;19.90;;;;;;;6.94;67.68;103055.31;4989168;28;20097;-62
2021/12/18 12:07:27;;;;;;;26.38;20.83;;;;;;;6.92;67.76;103046.63;4988429;28;20060;-63
2021/12/18 12:10:35;;;;;;;28.33;21.42;;;;;;;6.95;67.79;103056.19;4989407;28;20061;-69